sensor_id;sensor_type;location;lat;lon;timestamp;temperature;humidity
72576;DHT22;60613;48.658;2.328;2023-03-13T07:18:16;21.10;47.10
72576;DHT22;60613;48.658;2.328;2023-03-13T07:20:42;21.20;46.20
72576;DHT22;60613;48.658;2.328;2023-03-13T07:23:08;21.30;45.70
72576;DHT22;60613;48.658;2.328;2023-03-13T07:25:34;21.40;45.50
72576;DHT22;60613;48.658;2.328;2023-03-13T07:27:59;21.50;45.10
72576;DHT22;60613;48.658;2.328;2023-03-13T07:30:26;21.60;45.00
72576;DHT22;60613;48.658;2.328;2023-03-13T07:32:52;21.60;44.60
72576;DHT22;60613;48.658;2.328;2023-03-13T07:35:17;21.70;44.40
72576;DHT22;60613;48.658;2.328;2023-03-13T07:37:43;21.80;44.10
72576;DHT22;60613;48.658;2.328;2023-03-13T07:40:11;21.80;43.90
72576;DHT22;60613;48.658;2.328;2023-03-13T07:42:40;21.90;43.90
72576;DHT22;60613;48.658;2.328;2023-03-13T07:45:07;21.90;43.70
72576;DHT22;60613;48.658;2.328;2023-03-13T07:47:35;22.00;43.80
72576;DHT22;60613;48.658;2.328;2023-03-13T07:50:01;22.00;44.10
72576;DHT22;60613;48.658;2.328;2023-03-13T07:52:27;21.90;44.70
72576;DHT22;60613;48.658;2.328;2023-03-13T07:54:53;22.00;44.40
72576;DHT22;60613;48.658;2.328;2023-03-13T07:57:19;22.00;45.40
72576;DHT22;60613;48.658;2.328;2023-03-13T07:59:45;22.10;44.10
72576;DHT22;60613;48.658;2.328;2023-03-13T08:02:11;22.10;43.80
72576;DHT22;60613;48.658;2.328;2023-03-13T08:04:38;22.10;44.40
72576;DHT22;60613;48.658;2.328;2023-03-13T08:07:10;22.10;44.10
72576;DHT22;60613;48.658;2.328;2023-03-13T08:09:36;22.10;44.00
72576;DHT22;60613;48.658;2.328;2023-03-13T08:12:02;22.10;43.80
72576;DHT22;60613;48.658;2.328;2023-03-13T08:14:27;22.10;43.80
72576;DHT22;60613;48.658;2.328;2023-03-13T08:16:53;22.10;43.70
72576;DHT22;60613;48.658;2.328;2023-03-13T08:19:18;22.20;43.70
72576;DHT22;60613;48.658;2.328;2023-03-13T08:21:44;22.20;43.60
72576;DHT22;60613;48.658;2.328;2023-03-13T08:24:10;22.20;43.70
72576;DHT22;60613;48.658;2.328;2023-03-13T08:26:38;22.20;43.60
72576;DHT22;60613;48.658;2.328;2023-03-13T08:29:07;22.20;43.70
72576;DHT22;60613;48.658;2.328;2023-03-13T08:31:41;22.30;43.50
72576;DHT22;60613;48.658;2.328;2023-03-13T08:34:07;22.30;43.90
72576;DHT22;60613;48.658;2.328;2023-03-13T08:36:35;22.20;44.00
72576;DHT22;60613;48.658;2.328;2023-03-13T08:39:04;22.30;43.90
72576;DHT22;60613;48.658;2.328;2023-03-13T08:41:33;22.30;43.90
72576;DHT22;60613;48.658;2.328;2023-03-13T08:44:01;22.30;43.70
72576;DHT22;60613;48.658;2.328;2023-03-13T08:46:31;22.30;43.60
72576;DHT22;60613;48.658;2.328;2023-03-13T08:48:57;22.40;43.60
72576;DHT22;60613;48.658;2.328;2023-03-13T08:51:24;22.30;43.90
72576;DHT22;60613;48.658;2.328;2023-03-13T08:53:51;22.30;43.60
72576;DHT22;60613;48.658;2.328;2023-03-13T08:56:19;22.30;43.60
72576;DHT22;60613;48.658;2.328;2023-03-13T08:58:49;22.40;43.70
72576;DHT22;60613;48.658;2.328;2023-03-13T09:01:15;22.40;44.00
72576;DHT22;60613;48.658;2.328;2023-03-13T09:03:41;22.30;44.30
72576;DHT22;60613;48.658;2.328;2023-03-13T09:06:09;22.30;44.50
72576;DHT22;60613;48.658;2.328;2023-03-13T09:08:36;22.30;44.50
72576;DHT22;60613;48.658;2.328;2023-03-13T09:11:04;22.30;44.60
72576;DHT22;60613;48.658;2.328;2023-03-13T09:13:32;22.30;44.30
72576;DHT22;60613;48.658;2.328;2023-03-13T09:16:00;22.40;44.40
72576;DHT22;60613;48.658;2.328;2023-03-13T09:18:27;22.30;44.30
72576;DHT22;60613;48.658;2.328;2023-03-13T09:20:53;22.40;44.20
72576;DHT22;60613;48.658;2.328;2023-03-13T09:23:19;22.40;44.30
72576;DHT22;60613;48.658;2.328;2023-03-13T09:25:45;22.40;44.40
72576;DHT22;60613;48.658;2.328;2023-03-13T09:28:11;22.40;44.20
72576;DHT22;60613;48.658;2.328;2023-03-13T09:30:37;22.40;44.30
72576;DHT22;60613;48.658;2.328;2023-03-13T09:33:03;22.40;44.20
72576;DHT22;60613;48.658;2.328;2023-03-13T09:35:28;22.30;44.30
72576;DHT22;60613;48.658;2.328;2023-03-13T09:37:54;22.40;44.20
72576;DHT22;60613;48.658;2.328;2023-03-13T09:40:21;22.40;44.20
72576;DHT22;60613;48.658;2.328;2023-03-13T09:42:54;22.40;45.40
72576;DHT22;60613;48.658;2.328;2023-03-13T09:45:29;22.40;44.10
72576;DHT22;60613;48.658;2.328;2023-03-13T09:48:05;22.40;44.20
72576;DHT22;60613;48.658;2.328;2023-03-13T09:50:40;22.30;44.20
72576;DHT22;60613;48.658;2.328;2023-03-13T09:56:02;22.30;44.30
72576;DHT22;60613;48.658;2.328;2023-03-13T09:58:29;22.30;44.20
72576;DHT22;60613;48.658;2.328;2023-03-13T10:00:59;22.30;44.10
72576;DHT22;60613;48.658;2.328;2023-03-13T10:03:38;22.40;44.20
72576;DHT22;60613;48.658;2.328;2023-03-13T10:06:12;22.30;44.10
72576;DHT22;60613;48.658;2.328;2023-03-13T10:08:40;22.30;44.00
72576;DHT22;60613;48.658;2.328;2023-03-13T10:11:27;22.30;43.90
72576;DHT22;60613;48.658;2.328;2023-03-13T10:19:57;22.40;43.90
72576;DHT22;60613;48.658;2.328;2023-03-13T10:22:27;22.30;43.90
72576;DHT22;60613;48.658;2.328;2023-03-13T10:25:08;22.40;43.80
72576;DHT22;60613;48.658;2.328;2023-03-13T10:27:56;22.40;43.60
72576;DHT22;60613;48.658;2.328;2023-03-13T10:30:28;22.40;43.70
72576;DHT22;60613;48.658;2.328;2023-03-13T10:35:42;22.40;43.50
72576;DHT22;60613;48.658;2.328;2023-03-13T10:38:14;22.40;43.60
72576;DHT22;60613;48.658;2.328;2023-03-13T10:40:40;22.40;43.70
72576;DHT22;60613;48.658;2.328;2023-03-13T10:43:19;22.40;43.80
72576;DHT22;60613;48.658;2.328;2023-03-13T10:45:45;22.40;43.80
72576;DHT22;60613;48.658;2.328;2023-03-13T10:48:25;22.40;43.70
72576;DHT22;60613;48.658;2.328;2023-03-13T10:50:55;22.40;43.80
72576;DHT22;60613;48.658;2.328;2023-03-13T10:55:54;22.40;43.80
72576;DHT22;60613;48.658;2.328;2023-03-13T10:58:26;22.30;44.00
72576;DHT22;60613;48.658;2.328;2023-03-13T11:01:09;22.30;44.20
72576;DHT22;60613;48.658;2.328;2023-03-13T11:03:38;22.20;44.50
72576;DHT22;60613;48.658;2.328;2023-03-13T11:06:04;22.20;44.30
72576;DHT22;60613;48.658;2.328;2023-03-13T11:08:36;22.20;44.50
72576;DHT22;60613;48.658;2.328;2023-03-13T11:11:04;22.20;44.60
72576;DHT22;60613;48.658;2.328;2023-03-13T11:13:36;22.20;44.70
72576;DHT22;60613;48.658;2.328;2023-03-13T11:16:26;22.10;44.60
72576;DHT22;60613;48.658;2.328;2023-03-13T11:19:03;22.10;44.80
72576;DHT22;60613;48.658;2.328;2023-03-13T11:27:08;22.30;45.10
72576;DHT22;60613;48.658;2.328;2023-03-13T11:35:14;22.30;45.00
72576;DHT22;60613;48.658;2.328;2023-03-13T11:37:43;22.30;45.20
72576;DHT22;60613;48.658;2.328;2023-03-13T11:40:19;22.30;44.90
72576;DHT22;60613;48.658;2.328;2023-03-13T11:48:08;22.50;44.60
72576;DHT22;60613;48.658;2.328;2023-03-13T11:51:26;22.50;44.40
72576;DHT22;60613;48.658;2.328;2023-03-13T11:56:26;22.60;44.50
72576;DHT22;60613;48.658;2.328;2023-03-13T11:59:06;22.60;44.50
72576;DHT22;60613;48.658;2.328;2023-03-13T12:01:39;22.60;44.10
72576;DHT22;60613;48.658;2.328;2023-03-13T12:06:41;22.50;44.10
72576;DHT22;60613;48.658;2.328;2023-03-13T12:17:16;22.40;44.70
72576;DHT22;60613;48.658;2.328;2023-03-13T12:19:54;22.40;44.80
72576;DHT22;60613;48.658;2.328;2023-03-13T12:25:04;22.40;44.80
72576;DHT22;60613;48.658;2.328;2023-03-13T12:27:34;22.30;44.80
72576;DHT22;60613;48.658;2.328;2023-03-13T12:30:05;22.30;44.70
72576;DHT22;60613;48.658;2.328;2023-03-13T12:35:41;22.30;44.60
72576;DHT22;60613;48.658;2.328;2023-03-13T12:43:21;22.40;44.40
72576;DHT22;60613;48.658;2.328;2023-03-13T12:54:39;22.50;44.40
72576;DHT22;60613;48.658;2.328;2023-03-13T12:59:54;22.50;44.30
72576;DHT22;60613;48.658;2.328;2023-03-13T13:02:23;22.50;44.50
72576;DHT22;60613;48.658;2.328;2023-03-13T13:04:51;22.50;44.60
72576;DHT22;60613;48.658;2.328;2023-03-13T13:07:28;22.50;44.30
72576;DHT22;60613;48.658;2.328;2023-03-13T13:12:30;22.50;44.50
72576;DHT22;60613;48.658;2.328;2023-03-13T13:14:58;22.50;44.60
72576;DHT22;60613;48.658;2.328;2023-03-13T13:17:30;22.50;44.40
72576;DHT22;60613;48.658;2.328;2023-03-13T13:20:29;22.50;44.30
72576;DHT22;60613;48.658;2.328;2023-03-13T13:23:14;22.50;44.40
72576;DHT22;60613;48.658;2.328;2023-03-13T13:25:42;22.50;44.60
72576;DHT22;60613;48.658;2.328;2023-03-13T13:28:34;22.50;44.40
72576;DHT22;60613;48.658;2.328;2023-03-13T13:31:00;22.60;44.50
72576;DHT22;60613;48.658;2.328;2023-03-13T13:38:46;22.50;44.60
72576;DHT22;60613;48.658;2.328;2023-03-13T13:43:39;22.50;44.30
72576;DHT22;60613;48.658;2.328;2023-03-13T13:46:31;22.50;44.40
72576;DHT22;60613;48.658;2.328;2023-03-13T13:49:30;22.50;44.40
72576;DHT22;60613;48.658;2.328;2023-03-13T13:57:20;22.50;44.20
72576;DHT22;60613;48.658;2.328;2023-03-13T13:59:52;22.50;44.10
72576;DHT22;60613;48.658;2.328;2023-03-13T14:02:24;22.50;44.20
72576;DHT22;60613;48.658;2.328;2023-03-13T14:04:54;22.40;45.20
72576;DHT22;60613;48.658;2.328;2023-03-13T14:07:28;22.50;44.10
72576;DHT22;60613;48.658;2.328;2023-03-13T14:13:01;22.40;44.10
72576;DHT22;60613;48.658;2.328;2023-03-13T14:15:31;22.40;44.00
72576;DHT22;60613;48.658;2.328;2023-03-13T14:18:00;22.50;44.10
72576;DHT22;60613;48.658;2.328;2023-03-13T14:20:38;22.50;43.90
72576;DHT22;60613;48.658;2.328;2023-03-13T14:23:06;22.40;43.90
72576;DHT22;60613;48.658;2.328;2023-03-13T14:25:47;22.40;43.90
72576;DHT22;60613;48.658;2.328;2023-03-13T14:28:19;22.40;43.90
72576;DHT22;60613;48.658;2.328;2023-03-13T14:30:47;22.40;43.80
72576;DHT22;60613;48.658;2.328;2023-03-13T14:33:13;22.40;43.90
72576;DHT22;60613;48.658;2.328;2023-03-13T14:35:40;22.40;43.80
72576;DHT22;60613;48.658;2.328;2023-03-13T14:38:06;22.40;43.80
72576;DHT22;60613;48.658;2.328;2023-03-13T14:40:36;22.40;43.90
72576;DHT22;60613;48.658;2.328;2023-03-13T14:43:02;22.40;43.80
72576;DHT22;60613;48.658;2.328;2023-03-13T14:45:33;22.40;43.70
72576;DHT22;60613;48.658;2.328;2023-03-13T14:50:39;22.40;43.80
72576;DHT22;60613;48.658;2.328;2023-03-13T14:53:12;22.40;43.70
72576;DHT22;60613;48.658;2.328;2023-03-13T14:55:40;22.40;43.80
72576;DHT22;60613;48.658;2.328;2023-03-13T15:00:47;22.40;43.60
72576;DHT22;60613;48.658;2.328;2023-03-13T15:09:29;22.40;43.60
72576;DHT22;60613;48.658;2.328;2023-03-13T15:11:31;22.40;43.60
72576;DHT22;60613;48.658;2.328;2023-03-13T15:13:58;22.30;43.60
72576;DHT22;60613;48.658;2.328;2023-03-13T15:16:25;22.30;43.70
72576;DHT22;60613;48.658;2.328;2023-03-13T15:18:52;22.30;43.60
72576;DHT22;60613;48.658;2.328;2023-03-13T15:21:36;22.30;43.60
72576;DHT22;60613;48.658;2.328;2023-03-13T15:24:12;22.30;43.60
72576;DHT22;60613;48.658;2.328;2023-03-13T15:26:38;22.30;43.70
72576;DHT22;60613;48.658;2.328;2023-03-13T15:29:03;22.30;43.60
72576;DHT22;60613;48.658;2.328;2023-03-13T15:31:29;22.30;43.80
72576;DHT22;60613;48.658;2.328;2023-03-13T15:33:57;22.30;43.60
72576;DHT22;60613;48.658;2.328;2023-03-13T15:36:24;22.30;44.90
72576;DHT22;60613;48.658;2.328;2023-03-13T15:38:50;22.20;44.90
72576;DHT22;60613;48.658;2.328;2023-03-13T15:41:17;22.20;43.80
72576;DHT22;60613;48.658;2.328;2023-03-13T15:43:42;22.20;43.60
72576;DHT22;60613;48.658;2.328;2023-03-13T15:46:12;22.20;43.60
72576;DHT22;60613;48.658;2.328;2023-03-13T15:48:38;22.20;43.60
72576;DHT22;60613;48.658;2.328;2023-03-13T15:51:09;22.20;43.70
72576;DHT22;60613;48.658;2.328;2023-03-13T15:53:36;22.20;43.60
72576;DHT22;60613;48.658;2.328;2023-03-13T15:56:10;22.20;43.50
72576;DHT22;60613;48.658;2.328;2023-03-13T15:58:37;22.20;43.60
72576;DHT22;60613;48.658;2.328;2023-03-13T16:01:03;22.30;43.60
72576;DHT22;60613;48.658;2.328;2023-03-13T16:03:29;22.30;43.40
72576;DHT22;60613;48.658;2.328;2023-03-13T16:05:55;22.30;43.40
72576;DHT22;60613;48.658;2.328;2023-03-13T16:08:26;22.40;43.50
72576;DHT22;60613;48.658;2.328;2023-03-13T16:10:53;22.30;43.40
72576;DHT22;60613;48.658;2.328;2023-03-13T16:13:19;22.40;43.30
72576;DHT22;60613;48.658;2.328;2023-03-13T16:15:45;22.40;43.50
72576;DHT22;60613;48.658;2.328;2023-03-13T16:18:22;22.40;43.50
72576;DHT22;60613;48.658;2.328;2023-03-13T16:20:49;22.40;43.40
72576;DHT22;60613;48.658;2.328;2023-03-13T16:23:15;22.40;43.50
72576;DHT22;60613;48.658;2.328;2023-03-13T16:25:42;22.40;43.40
72576;DHT22;60613;48.658;2.328;2023-03-13T16:28:12;22.40;43.50
72576;DHT22;60613;48.658;2.328;2023-03-13T16:30:39;22.40;43.50
72576;DHT22;60613;48.658;2.328;2023-03-13T16:33:08;22.40;43.40
72576;DHT22;60613;48.658;2.328;2023-03-13T16:35:35;22.40;43.40
72576;DHT22;60613;48.658;2.328;2023-03-13T16:38:01;22.40;43.30
72576;DHT22;60613;48.658;2.328;2023-03-13T16:40:30;22.40;43.30
72576;DHT22;60613;48.658;2.328;2023-03-13T16:42:56;22.40;43.20
72576;DHT22;60613;48.658;2.328;2023-03-13T16:45:22;22.40;43.20
72576;DHT22;60613;48.658;2.328;2023-03-13T16:47:48;22.40;43.20
72576;DHT22;60613;48.658;2.328;2023-03-13T16:50:22;22.40;43.40
72576;DHT22;60613;48.658;2.328;2023-03-13T16:52:49;22.40;43.30
72576;DHT22;60613;48.658;2.328;2023-03-13T16:55:15;22.40;43.50
72576;DHT22;60613;48.658;2.328;2023-03-13T16:57:41;22.40;43.30
72576;DHT22;60613;48.658;2.328;2023-03-13T17:00:16;22.40;43.30
72576;DHT22;60613;48.658;2.328;2023-03-13T17:02:42;22.40;43.20
72576;DHT22;60613;48.658;2.328;2023-03-13T17:05:08;22.50;43.30
72576;DHT22;60613;48.658;2.328;2023-03-13T17:07:34;22.50;43.20
72576;DHT22;60613;48.658;2.328;2023-03-13T17:10:00;22.50;43.20
72576;DHT22;60613;48.658;2.328;2023-03-13T17:12:25;22.50;42.90
72576;DHT22;60613;48.658;2.328;2023-03-13T17:14:51;22.50;42.90
72576;DHT22;60613;48.658;2.328;2023-03-13T17:17:19;22.50;42.90
72576;DHT22;60613;48.658;2.328;2023-03-13T17:19:46;22.50;42.80
72576;DHT22;60613;48.658;2.328;2023-03-13T17:22:13;22.50;42.80
72576;DHT22;60613;48.658;2.328;2023-03-13T17:24:40;22.50;43.90
72576;DHT22;60613;48.658;2.328;2023-03-13T17:27:13;22.50;42.80
72576;DHT22;60613;48.658;2.328;2023-03-13T17:29:39;22.50;42.80
72576;DHT22;60613;48.658;2.328;2023-03-13T17:32:05;22.50;42.70
72576;DHT22;60613;48.658;2.328;2023-03-13T17:34:31;22.50;42.70
72576;DHT22;60613;48.658;2.328;2023-03-13T17:36:57;22.60;42.60
72576;DHT22;60613;48.658;2.328;2023-03-13T17:39:24;22.60;42.50
72576;DHT22;60613;48.658;2.328;2023-03-13T17:41:50;22.60;42.70
72576;DHT22;60613;48.658;2.328;2023-03-13T17:46:48;22.50;42.10
72576;DHT22;60613;48.658;2.328;2023-03-13T17:49:17;22.50;42.70
72576;DHT22;60613;48.658;2.328;2023-03-13T17:51:44;22.50;42.70
72576;DHT22;60613;48.658;2.328;2023-03-13T17:54:12;22.50;42.80
72576;DHT22;60613;48.658;2.328;2023-03-13T17:56:39;22.40;42.70
72576;DHT22;60613;48.658;2.328;2023-03-13T17:59:16;22.40;42.80
72576;DHT22;60613;48.658;2.328;2023-03-13T18:01:42;22.40;42.70
72576;DHT22;60613;48.658;2.328;2023-03-13T18:04:08;22.40;42.70
72576;DHT22;60613;48.658;2.328;2023-03-13T18:06:45;22.40;42.70
72576;DHT22;60613;48.658;2.328;2023-03-13T18:09:14;22.40;42.70
72576;DHT22;60613;48.658;2.328;2023-03-13T18:11:41;22.40;42.70
72576;DHT22;60613;48.658;2.328;2023-03-13T18:14:07;22.40;42.60
72576;DHT22;60613;48.658;2.328;2023-03-13T18:16:47;22.40;42.60
72576;DHT22;60613;48.658;2.328;2023-03-13T18:19:24;22.40;42.60
72576;DHT22;60613;48.658;2.328;2023-03-13T18:21:51;22.40;42.60
72576;DHT22;60613;48.658;2.328;2023-03-13T18:24:18;22.40;42.60
72576;DHT22;60613;48.658;2.328;2023-03-13T18:26:45;22.40;42.40
72576;DHT22;60613;48.658;2.328;2023-03-13T18:29:18;22.40;42.40
72576;DHT22;60613;48.658;2.328;2023-03-13T18:31:51;22.40;42.30
72576;DHT22;60613;48.658;2.328;2023-03-13T18:34:17;22.40;42.40
72576;DHT22;60613;48.658;2.328;2023-03-13T18:36:43;22.30;42.40
72576;DHT22;60613;48.658;2.328;2023-03-13T18:39:13;22.30;42.50
72576;DHT22;60613;48.658;2.328;2023-03-13T18:41:39;22.30;42.50
72576;DHT22;60613;48.658;2.328;2023-03-13T18:44:04;22.20;42.50
72576;DHT22;60613;48.658;2.328;2023-03-13T18:46:31;22.20;42.60
72576;DHT22;60613;48.658;2.328;2023-03-13T18:48:59;22.20;42.60
72576;DHT22;60613;48.658;2.328;2023-03-13T18:51:26;22.20;42.60
72576;DHT22;60613;48.658;2.328;2023-03-13T18:53:53;22.20;42.60
72576;DHT22;60613;48.658;2.328;2023-03-13T18:56:29;22.10;42.60
72576;DHT22;60613;48.658;2.328;2023-03-13T18:58:56;22.10;42.60
72576;DHT22;60613;48.658;2.328;2023-03-13T19:01:24;22.10;42.50
72576;DHT22;60613;48.658;2.328;2023-03-13T19:03:51;22.10;42.60
72576;DHT22;60613;48.658;2.328;2023-03-13T19:08:42;22.10;42.50
72576;DHT22;60613;48.658;2.328;2023-03-13T19:11:15;22.00;42.60
72576;DHT22;60613;48.658;2.328;2023-03-13T19:13:41;22.10;42.70
72576;DHT22;60613;48.658;2.328;2023-03-13T19:18:47;22.10;42.80
72576;DHT22;60613;48.658;2.328;2023-03-13T19:23:46;22.10;42.80
72576;DHT22;60613;48.658;2.328;2023-03-13T19:26:14;22.10;42.80
72576;DHT22;60613;48.658;2.328;2023-03-13T19:28:40;22.00;42.70
72576;DHT22;60613;48.658;2.328;2023-03-13T19:31:06;22.10;42.80
72576;DHT22;60613;48.658;2.328;2023-03-13T19:33:31;22.10;42.50
72576;DHT22;60613;48.658;2.328;2023-03-13T19:35:57;22.10;42.50
72576;DHT22;60613;48.658;2.328;2023-03-13T19:38:24;22.10;42.60
72576;DHT22;60613;48.658;2.328;2023-03-13T19:40:50;22.10;42.70
72576;DHT22;60613;48.658;2.328;2023-03-13T19:43:15;22.10;42.70
72576;DHT22;60613;48.658;2.328;2023-03-13T19:45:41;22.10;42.50
72576;DHT22;60613;48.658;2.328;2023-03-13T19:48:08;22.10;42.70
72576;DHT22;60613;48.658;2.328;2023-03-13T19:50:34;22.10;42.80
72576;DHT22;60613;48.658;2.328;2023-03-13T19:53:00;22.10;42.80
72576;DHT22;60613;48.658;2.328;2023-03-13T19:55:26;22.10;42.70
72576;DHT22;60613;48.658;2.328;2023-03-13T19:57:51;22.10;42.90
72576;DHT22;60613;48.658;2.328;2023-03-13T20:00:22;22.10;42.80
72576;DHT22;60613;48.658;2.328;2023-03-13T20:02:48;22.10;42.60
72576;DHT22;60613;48.658;2.328;2023-03-13T20:05:16;22.10;42.60
72576;DHT22;60613;48.658;2.328;2023-03-13T20:07:42;22.10;42.80
72576;DHT22;60613;48.658;2.328;2023-03-13T20:10:08;22.10;42.80
72576;DHT22;60613;48.658;2.328;2023-03-13T20:12:34;22.10;42.70
72576;DHT22;60613;48.658;2.328;2023-03-13T20:14:59;22.10;42.60
72576;DHT22;60613;48.658;2.328;2023-03-13T20:17:25;22.10;42.50
72576;DHT22;60613;48.658;2.328;2023-03-13T20:19:51;22.10;42.70
72576;DHT22;60613;48.658;2.328;2023-03-13T20:22:16;22.10;42.50
72576;DHT22;60613;48.658;2.328;2023-03-13T20:24:42;22.10;42.50
72576;DHT22;60613;48.658;2.328;2023-03-13T20:27:07;22.10;42.50
72576;DHT22;60613;48.658;2.328;2023-03-13T20:29:33;22.10;42.50
72576;DHT22;60613;48.658;2.328;2023-03-13T20:31:59;22.10;42.60
72576;DHT22;60613;48.658;2.328;2023-03-13T20:34:26;22.10;42.80
72576;DHT22;60613;48.658;2.328;2023-03-13T20:36:52;22.00;42.60
72576;DHT22;60613;48.658;2.328;2023-03-13T20:39:25;22.00;42.60
72576;DHT22;60613;48.658;2.328;2023-03-13T20:41:51;22.00;43.90
72576;DHT22;60613;48.658;2.328;2023-03-13T20:44:19;22.00;42.60
72576;DHT22;60613;48.658;2.328;2023-03-13T20:46:45;22.00;42.60
72576;DHT22;60613;48.658;2.328;2023-03-13T20:49:10;22.00;42.50
72576;DHT22;60613;48.658;2.328;2023-03-13T20:51:36;22.00;42.50
72576;DHT22;60613;48.658;2.328;2023-03-13T20:54:02;22.00;42.40
72576;DHT22;60613;48.658;2.328;2023-03-13T20:56:27;22.10;42.50
72576;DHT22;60613;48.658;2.328;2023-03-13T20:58:53;22.00;42.30
72576;DHT22;60613;48.658;2.328;2023-03-13T21:01:19;22.00;42.50
72576;DHT22;60613;48.658;2.328;2023-03-13T21:03:44;22.00;43.50
72576;DHT22;60613;48.658;2.328;2023-03-13T21:06:14;22.00;42.20
72576;DHT22;60613;48.658;2.328;2023-03-13T21:08:41;22.00;43.60
72576;DHT22;60613;48.658;2.328;2023-03-13T21:11:18;22.00;42.20
72576;DHT22;60613;48.658;2.328;2023-03-13T21:13:44;22.00;42.40
72576;DHT22;60613;48.658;2.328;2023-03-13T21:16:11;22.00;42.30
72576;DHT22;60613;48.658;2.328;2023-03-13T21:18:40;22.00;42.20
72576;DHT22;60613;48.658;2.328;2023-03-13T21:21:08;22.00;42.30
72576;DHT22;60613;48.658;2.328;2023-03-13T21:23:33;22.10;42.20
72576;DHT22;60613;48.658;2.328;2023-03-13T21:25:59;22.10;42.10
72576;DHT22;60613;48.658;2.328;2023-03-13T21:28:26;22.10;42.10
72576;DHT22;60613;48.658;2.328;2023-03-13T21:30:53;22.10;41.90
72576;DHT22;60613;48.658;2.328;2023-03-13T21:33:18;22.10;41.80
72576;DHT22;60613;48.658;2.328;2023-03-13T21:35:45;22.10;41.80
72576;DHT22;60613;48.658;2.328;2023-03-13T21:38:11;22.10;41.70
72576;DHT22;60613;48.658;2.328;2023-03-13T21:40:38;22.10;41.70
72576;DHT22;60613;48.658;2.328;2023-03-13T21:43:04;22.20;41.70
72576;DHT22;60613;48.658;2.328;2023-03-13T21:45:30;22.20;41.80
72576;DHT22;60613;48.658;2.328;2023-03-13T21:47:55;22.10;43.00
72576;DHT22;60613;48.658;2.328;2023-03-13T21:50:21;22.10;41.90
72576;DHT22;60613;48.658;2.328;2023-03-13T21:52:49;22.10;41.80
72576;DHT22;60613;48.658;2.328;2023-03-13T21:55:14;22.10;41.90
72576;DHT22;60613;48.658;2.328;2023-03-13T21:57:40;22.10;41.80
72576;DHT22;60613;48.658;2.328;2023-03-13T22:00:06;22.00;43.00
72576;DHT22;60613;48.658;2.328;2023-03-13T22:02:33;22.00;42.10
72576;DHT22;60613;48.658;2.328;2023-03-13T22:05:00;21.90;41.90
72576;DHT22;60613;48.658;2.328;2023-03-13T22:07:26;21.90;42.10
72576;DHT22;60613;48.658;2.328;2023-03-13T22:09:52;21.90;42.10
72576;DHT22;60613;48.658;2.328;2023-03-13T22:12:18;21.80;43.30
72576;DHT22;60613;48.658;2.328;2023-03-13T22:14:44;21.80;42.20
72576;DHT22;60613;48.658;2.328;2023-03-13T22:17:09;21.80;42.20
72576;DHT22;60613;48.658;2.328;2023-03-13T22:19:41;21.80;42.20
72576;DHT22;60613;48.658;2.328;2023-03-13T22:22:07;21.70;42.20
72576;DHT22;60613;48.658;2.328;2023-03-13T22:24:32;21.70;42.20
72576;DHT22;60613;48.658;2.328;2023-03-13T22:26:58;21.70;42.10
72576;DHT22;60613;48.658;2.328;2023-03-13T22:29:24;21.80;42.20
72576;DHT22;60613;48.658;2.328;2023-03-13T22:31:53;21.70;42.10
72576;DHT22;60613;48.658;2.328;2023-03-13T22:34:18;21.70;42.20
72576;DHT22;60613;48.658;2.328;2023-03-13T22:36:44;21.70;42.20
72576;DHT22;60613;48.658;2.328;2023-03-13T22:39:10;21.70;42.20
72576;DHT22;60613;48.658;2.328;2023-03-13T22:41:35;21.70;42.20
72576;DHT22;60613;48.658;2.328;2023-03-13T22:44:01;21.70;42.30
72576;DHT22;60613;48.658;2.328;2023-03-13T22:46:26;21.60;42.20
72576;DHT22;60613;48.658;2.328;2023-03-13T22:48:52;21.60;42.20
72576;DHT22;60613;48.658;2.328;2023-03-13T22:51:18;21.60;42.20
72576;DHT22;60613;48.658;2.328;2023-03-13T22:53:43;21.60;42.20
72576;DHT22;60613;48.658;2.328;2023-03-13T22:56:10;21.60;42.20
72576;DHT22;60613;48.658;2.328;2023-03-13T22:58:37;21.60;42.30
72576;DHT22;60613;48.658;2.328;2023-03-13T23:01:10;21.60;42.10
72576;DHT22;60613;48.658;2.328;2023-03-13T23:03:37;21.60;42.20
72576;DHT22;60613;48.658;2.328;2023-03-13T23:06:07;21.60;42.10
72576;DHT22;60613;48.658;2.328;2023-03-13T23:08:34;21.60;42.20
72576;DHT22;60613;48.658;2.328;2023-03-13T23:11:03;21.60;42.20
72576;DHT22;60613;48.658;2.328;2023-03-13T23:13:30;21.60;42.10
72576;DHT22;60613;48.658;2.328;2023-03-13T23:15:56;21.60;42.00
72576;DHT22;60613;48.658;2.328;2023-03-13T23:18:26;21.60;42.10
72576;DHT22;60613;48.658;2.328;2023-03-13T23:20:52;21.60;42.10
72576;DHT22;60613;48.658;2.328;2023-03-13T23:23:18;21.60;42.10
72576;DHT22;60613;48.658;2.328;2023-03-13T23:25:44;21.60;42.00
72576;DHT22;60613;48.658;2.328;2023-03-13T23:28:09;21.60;42.10
72576;DHT22;60613;48.658;2.328;2023-03-13T23:30:35;21.60;42.00
72576;DHT22;60613;48.658;2.328;2023-03-13T23:33:01;21.60;42.00
72576;DHT22;60613;48.658;2.328;2023-03-13T23:35:26;21.60;41.90
72576;DHT22;60613;48.658;2.328;2023-03-13T23:37:52;21.60;41.90
72576;DHT22;60613;48.658;2.328;2023-03-13T23:40:19;21.60;41.90
72576;DHT22;60613;48.658;2.328;2023-03-13T23:42:46;21.60;42.00
72576;DHT22;60613;48.658;2.328;2023-03-13T23:45:12;21.60;41.90
72576;DHT22;60613;48.658;2.328;2023-03-13T23:47:38;21.60;41.90
72576;DHT22;60613;48.658;2.328;2023-03-13T23:50:04;21.50;41.90
72576;DHT22;60613;48.658;2.328;2023-03-13T23:52:34;21.50;42.00
72576;DHT22;60613;48.658;2.328;2023-03-13T23:54:59;21.50;42.00
72576;DHT22;60613;48.658;2.328;2023-03-13T23:57:25;21.50;42.00
72576;DHT22;60613;48.658;2.328;2023-03-13T23:59:51;21.50;41.90
